TimeCDT,TemperatureF,Dew PointF,Humidity,Sea Level PressureIn,VisibilityMPH,Wind Direction,Wind SpeedMPH,Gust SpeedMPH,PrecipitationIn,Events,Conditions,WindDirDegrees,DateUTC
12:53 AM,46.0,34.0,63,29.81,10.0,Calm,Calm,-,N/A,,Mostly Cloudy,0,2013-04-07 05:53:00
1:53 AM,44.1,35.1,71,29.79,10.0,Calm,Calm,-,N/A,,Mostly Cloudy,0,2013-04-07 06:53:00
2:53 AM,43.0,32.0,65,29.77,10.0,ESE,4.6,-,N/A,,Mostly Cloudy,120,2013-04-07 07:53:00
3:53 AM,44.1,33.1,65,29.75,10.0,East,3.5,-,N/A,,Overcast,100,2013-04-07 08:53:00
4:53 AM,41.0,32.0,70,29.75,10.0,NNW,3.5,-,N/A,,Mostly Cloudy,340,2013-04-07 09:53:00
5:53 AM,41.0,32.0,70,29.74,10.0,Calm,Calm,-,N/A,,Overcast,0,2013-04-07 10:53:00
6:53 AM,39.0,30.9,73,29.75,10.0,Calm,Calm,-,N/A,,Mostly Cloudy,0,2013-04-07 11:53:00
7:53 AM,39.9,32.0,73,29.76,10.0,Calm,Calm,-,N/A,,Clear,0,2013-04-07 12:53:00
8:53 AM,46.9,35.1,63,29.80,10.0,WSW,4.6,-,N/A,,Overcast,240,2013-04-07 13:53:00
9:53 AM,50.0,44.1,80,29.82,9.0,SW,8.1,-,0.05,Rain,Light Rain,230,2013-04-07 14:53:00
10:53 AM,50.0,46.0,86,29.80,10.0,Calm,Calm,-,0.03,Rain,Light Rain,0,2013-04-07 15:53:00
11:53 AM,48.9,46.9,93,29.80,4.0,SE,8.1,-,0.08,Rain,Light Rain,130,2013-04-07 16:53:00
12:53 PM,53.1,48.0,83,29.75,10.0,SSE,8.1,-,0.04,,Overcast,150,2013-04-07 17:53:00
1:53 PM,57.9,46.9,67,29.72,10.0,South,12.7,-,N/A,,Partly Cloudy,170,2013-04-07 18:53:00
2:53 PM,62.1,46.9,58,29.68,10.0,South,10.4,-,N/A,,Clear,180,2013-04-07 19:53:00
3:53 PM,64.9,43.0,45,29.65,10.0,SSW,5.8,-,N/A,,Partly Cloudy,200,2013-04-07 20:53:00
4:53 PM,66.0,44.1,45,29.62,10.0,Variable,6.9,-,N/A,,Partly Cloudy,0,2013-04-07 21:53:00
5:53 PM,64.9,48.0,54,29.62,10.0,ESE,12.7,-,N/A,,Clear,110,2013-04-07 22:53:00
6:53 PM,62.1,48.0,60,29.61,10.0,ESE,15.0,-,N/A,,Clear,110,2013-04-07 23:53:00
7:53 PM,57.0,48.0,72,29.61,10.0,ESE,4.6,-,N/A,,Clear,120,2013-04-08 00:53:00
8:53 PM,48.9,44.1,83,29.62,10.0,ESE,6.9,-,N/A,,Clear,120,2013-04-08 01:53:00
9:53 PM,48.0,44.1,86,29.63,10.0,Calm,Calm,-,N/A,,Clear,0,2013-04-08 02:53:00
10:53 PM,46.0,42.1,86,29.64,10.0,ESE,4.6,-,N/A,,Clear,120,2013-04-08 03:53:00
11:53 PM,50.0,43.0,77,29.65,10.0,South,9.2,-,N/A,,Clear,170,2013-04-08 04:53:00